createdAt,value
2022-12-25T00:04:14.983Z,3.85
2022-12-25T00:09:17.721Z,6.18
2022-12-25T00:14:20.338Z,7.52
2022-12-25T00:19:23.140Z,6.59
2022-12-25T00:24:25.818Z,4.74
2022-12-25T00:29:28.492Z,4.61
2022-12-25T00:34:31.651Z,6.63
2022-12-25T00:39:34.442Z,7.20
2022-12-25T00:44:37.100Z,5.21
2022-12-25T00:49:39.833Z,3.84
2022-12-25T00:54:42.487Z,4.02
2022-12-25T00:59:45.408Z,6.20
2022-12-25T01:04:49.230Z,7.54
2022-12-25T01:09:54.820Z,6.57
2022-12-25T01:14:57.476Z,4.85
2022-12-25T01:20:00.198Z,3.87
2022-12-25T01:25:04.384Z,4.22
2022-12-25T01:30:07.641Z,6.47
2022-12-25T01:35:10.544Z,7.59
2022-12-25T01:40:13.435Z,6.05
2022-12-25T01:45:33.597Z,4.61
2022-12-25T01:50:39.429Z,6.61
2022-12-25T01:55:44.994Z,7.83
2022-12-25T02:00:48.071Z,6.03
2022-12-25T02:05:51.785Z,4.49
2022-12-25T02:10:54.439Z,4.48
2022-12-25T02:16:00.259Z,6.74
2022-12-25T02:21:06.822Z,7.75
2022-12-25T02:26:12.340Z,5.87
2022-12-25T02:31:21.493Z,4.45
2022-12-25T02:36:29.327Z,5.99
2022-12-25T02:41:37.378Z,7.60
2022-12-25T02:46:43.056Z,6.42
2022-12-25T02:51:55.474Z,4.57
2022-12-25T02:57:04.730Z,4.57
2022-12-25T03:02:11.277Z,6.88
2022-12-25T03:07:18.718Z,7.93
2022-12-25T03:12:35.780Z,6.34
2022-12-25T03:17:38.970Z,4.73
2022-12-25T03:22:48.007Z,4.78
2022-12-25T03:27:53.326Z,7.13
2022-12-25T03:33:29.819Z,7.53
2022-12-25T03:38:51.039Z,5.37
2022-12-25T03:44:06.355Z,4.10
2022-12-25T03:49:26.778Z,4.47
2022-12-25T03:54:36.459Z,6.79
2022-12-25T03:59:42.004Z,7.85
2022-12-25T04:04:47.564Z,6.34
2022-12-25T04:09:53.121Z,4.73
2022-12-25T04:14:58.787Z,4.71
2022-12-25T04:20:04.408Z,6.71
2022-12-25T04:25:11.131Z,7.82
2022-12-25T04:30:16.709Z,6.44
2022-12-25T04:35:22.489Z,4.84
2022-12-25T04:40:25.286Z,4.81
2022-12-25T04:45:27.953Z,6.93
2022-12-25T04:50:30.606Z,8.13
2022-12-25T04:55:33.230Z,6.73
2022-12-25T05:00:36.468Z,4.99
2022-12-25T05:05:40.628Z,4.90
2022-12-25T05:10:43.335Z,6.86
2022-12-25T05:15:46.081Z,8.02
2022-12-25T05:20:53.346Z,7.18
2022-12-25T05:25:56.478Z,5.08
2022-12-25T05:30:59.214Z,4.79
2022-12-25T05:36:06.171Z,6.99
2022-12-25T05:41:09.030Z,8.01
2022-12-25T05:46:13.407Z,7.34
2022-12-25T05:51:16.132Z,5.60
2022-12-25T05:56:18.807Z,5.37
2022-12-25T06:01:24.591Z,7.20
2022-12-25T06:06:27.387Z,7.79
2022-12-25T06:11:30.030Z,5.64
2022-12-25T06:16:38.009Z,5.19
2022-12-25T06:21:41.183Z,7.06
2022-12-25T06:26:43.890Z,8.15
2022-12-25T06:31:46.878Z,7.11
2022-12-25T06:36:50.052Z,5.43
2022-12-25T06:41:52.683Z,5.34
2022-12-25T06:46:55.464Z,7.38
2022-12-25T06:51:58.201Z,8.14
2022-12-25T06:57:01.073Z,6.37
2022-12-25T07:02:04.226Z,4.92
2022-12-25T07:07:09.474Z,4.99
2022-12-25T07:12:16.132Z,7.20
2022-12-25T07:17:19.960Z,8.42
2022-12-25T07:22:23.437Z,7.20
2022-12-25T07:27:26.887Z,5.62
2022-12-25T07:32:31.692Z,5.55
2022-12-25T07:37:34.313Z,7.81
2022-12-25T07:42:37.064Z,8.68
2022-12-25T07:47:39.697Z,6.88
2022-12-25T07:52:43.939Z,5.49
2022-12-25T07:57:46.785Z,5.54
2022-12-25T08:02:50.549Z,7.87
2022-12-25T08:07:57.750Z,8.35
2022-12-25T08:13:00.793Z,6.38
2022-12-25T08:18:03.521Z,5.29
2022-12-25T08:23:06.610Z,5.63
2022-12-25T08:28:09.707Z,7.94
2022-12-25T08:33:12.355Z,9.14
2022-12-25T08:38:15.039Z,7.67
2022-12-25T08:43:17.771Z,6.30
2022-12-25T08:48:20.509Z,5.56
2022-12-25T08:53:23.593Z,5.91
2022-12-25T08:58:27.159Z,8.24
2022-12-25T09:03:32.281Z,9.61
2022-12-25T09:08:38.868Z,8.21
2022-12-25T09:13:45.419Z,6.83
2022-12-25T09:18:48.597Z,6.80
2022-12-25T09:23:51.292Z,8.82
2022-12-25T09:28:54.033Z,9.59
2022-12-25T09:33:58.337Z,7.93
2022-12-25T09:39:01.687Z,6.89
2022-12-25T09:44:09.821Z,7.18
2022-12-25T09:49:37.238Z,9.34
2022-12-25T09:54:47.546Z,9.73
2022-12-25T09:59:54.024Z,7.97
2022-12-25T10:04:57.677Z,6.81
2022-12-25T10:10:03.635Z,8.14
2022-12-25T10:15:21.186Z,9.84
2022-12-25T10:20:26.706Z,9.43
2022-12-25T10:25:30.710Z,7.74
2022-12-25T10:30:34.032Z,9.09
2022-12-25T10:35:37.899Z,9.59
2022-12-25T10:40:46.442Z,7.73
2022-12-25T10:45:50.060Z,6.50
2022-12-25T10:50:53.359Z,6.58
2022-12-25T10:55:57.423Z,8.76
2022-12-25T11:01:06.110Z,9.49
2022-12-25T11:06:23.300Z,7.64
2022-12-25T11:11:27.719Z,6.33
2022-12-25T11:16:35.264Z,6.98
2022-12-25T11:21:38.022Z,8.99
2022-12-25T11:26:46.513Z,9.29
2022-12-25T11:31:51.228Z,7.34
2022-12-25T11:36:54.428Z,7.08
2022-12-25T11:42:19.770Z,9.34
2022-12-25T11:47:26.342Z,8.69
2022-12-25T11:52:35.049Z,6.99
2022-12-25T11:57:39.943Z,7.11
2022-12-25T12:02:44.933Z,9.41
2022-12-25T12:07:54.038Z,9.45
2022-12-25T12:13:06.862Z,7.52
2022-12-25T12:18:17.998Z,6.38
2022-12-25T12:23:20.682Z,6.84
2022-12-25T12:28:28.636Z,9.25
2022-12-25T12:33:38.623Z,9.47
2022-12-25T12:38:44.032Z,7.57
2022-12-25T12:43:46.934Z,6.42
2022-12-25T12:48:54.908Z,6.65
2022-12-25T12:54:03.376Z,8.96
2022-12-25T12:59:09.908Z,9.51
2022-12-25T13:04:18.809Z,7.68
2022-12-25T13:09:34.451Z,6.38
2022-12-25T13:14:37.993Z,6.86
2022-12-25T13:19:42.952Z,9.18
2022-12-25T13:31:58.491Z,6.81
2022-12-25T13:37:09.388Z,6.77
2022-12-25T13:42:16.870Z,8.94
2022-12-25T13:47:30.107Z,10.06
2022-12-25T13:52:35.711Z,8.18
2022-12-25T13:57:45.556Z,6.60
2022-12-25T14:02:49.034Z,6.64
2022-12-25T14:07:53.719Z,8.96
2022-12-25T14:13:00.724Z,9.33
2022-12-25T14:18:03.577Z,7.40
2022-12-25T14:23:07.272Z,6.17
2022-12-25T14:28:24.697Z,6.30
2022-12-25T14:33:31.458Z,8.16
2022-12-25T14:38:35.726Z,9.11
2022-12-25T14:43:40.369Z,8.97
2022-12-25T14:48:43.476Z,7.05
2022-12-25T14:53:49.170Z,6.63
2022-12-25T14:58:55.031Z,8.43
2022-12-25T15:04:03.442Z,9.56
2022-12-25T15:09:14.831Z,8.39
2022-12-25T15:14:17.822Z,6.56
2022-12-25T15:19:36.891Z,6.39
2022-12-25T15:24:40.543Z,8.51
2022-12-25T15:35:07.084Z,7.83
2022-12-25T15:40:13.545Z,6.41
2022-12-25T15:45:21.724Z,7.94
2022-12-25T15:50:24.466Z,9.27
2022-12-25T15:55:27.204Z,8.94
2022-12-25T16:00:30.193Z,6.75
2022-12-25T16:05:32.874Z,6.35
2022-12-25T16:10:38.848Z,8.16
2022-12-25T16:15:41.811Z,9.23
2022-12-25T16:20:44.883Z,9.07
2022-12-25T16:25:48.357Z,6.98
2022-12-25T16:30:51.276Z,7.01
2022-12-25T16:35:55.190Z,8.81
2022-12-25T16:41:00.157Z,9.51
2022-12-25T16:46:09.999Z,7.67
2022-12-25T16:51:15.863Z,6.50
2022-12-25T16:56:20.774Z,8.21
2022-12-25T17:01:24.173Z,9.45
2022-12-25T17:06:28.467Z,9.18
2022-12-25T17:11:32.152Z,7.04
2022-12-25T17:16:36.939Z,6.73
2022-12-25T17:21:39.610Z,8.57
2022-12-25T17:26:43.860Z,9.52
2022-12-25T17:31:46.860Z,9.46
2022-12-25T17:36:49.612Z,7.22
2022-12-25T17:41:52.379Z,6.65
2022-12-25T17:46:55.495Z,8.56
2022-12-25T17:51:58.202Z,9.69
2022-12-25T17:57:01.273Z,9.35
2022-12-25T18:02:04.094Z,7.17
2022-12-25T18:07:06.774Z,7.87
2022-12-25T18:12:09.527Z,9.42
2022-12-25T18:17:12.157Z,9.84
2022-12-25T18:22:15.173Z,7.84
2022-12-25T18:27:18.185Z,7.18
2022-12-25T18:32:26.303Z,8.91
2022-12-25T18:37:35.920Z,9.91
2022-12-25T18:42:43.391Z,9.39
2022-12-25T18:47:46.638Z,7.16
2022-12-25T18:52:51.760Z,6.81
2022-12-25T18:57:55.368Z,8.98
2022-12-25T19:02:59.433Z,10.01
2022-12-25T19:08:03.011Z,9.56
2022-12-25T19:13:06.826Z,7.33
2022-12-25T19:18:10.131Z,7.85
2022-12-25T19:23:12.754Z,9.46
2022-12-25T19:28:17.671Z,10.33
2022-12-25T19:33:21.777Z,9.45
2022-12-25T19:38:24.443Z,7.18
2022-12-25T19:43:30.549Z,7.79
2022-12-25T19:48:33.990Z,9.66
2022-12-25T19:53:36.628Z,10.47
2022-12-25T19:58:39.986Z,9.05
2022-12-25T20:03:46.293Z,7.66
2022-12-25T20:08:52.671Z,9.26
2022-12-25T20:13:55.887Z,10.16
2022-12-25T20:18:59.249Z,9.89
2022-12-25T20:24:01.982Z,7.56
2022-12-25T20:29:05.285Z,7.79
2022-12-25T20:34:10.299Z,9.57
2022-12-25T20:39:13.297Z,10.44
2022-12-25T20:44:16.086Z,9.88
2022-12-25T20:49:19.022Z,7.63
2022-12-25T20:54:21.712Z,8.22
2022-12-25T20:59:24.675Z,9.93
2022-12-25T21:04:27.418Z,10.36
2022-12-25T21:09:30.138Z,8.29
2022-12-25T21:14:32.871Z,7.63
2022-12-25T21:19:35.557Z,9.51
2022-12-25T21:24:38.443Z,10.45
2022-12-25T21:29:41.291Z,9.70
2022-12-25T21:34:44.160Z,7.59
2022-12-25T21:39:50.457Z,8.57
2022-12-25T21:44:53.014Z,10.18
2022-12-25T21:49:58.615Z,10.69
2022-12-25T21:55:01.275Z,8.91
2022-12-25T22:00:04.992Z,8.04
2022-12-25T22:05:08.051Z,9.85
2022-12-25T22:10:10.642Z,10.67
2022-12-25T22:15:13.289Z,9.30
2022-12-25T22:20:21.996Z,8.11
2022-12-25T22:25:25.348Z,9.71
2022-12-25T22:30:29.437Z,10.55
2022-12-25T22:35:32.477Z,9.01
2022-12-25T22:40:37.548Z,7.95
2022-12-25T22:45:40.236Z,9.67
2022-12-25T22:50:42.889Z,10.57
2022-12-25T22:55:47.087Z,9.02
2022-12-25T23:00:49.741Z,7.97
2022-12-25T23:05:56.726Z,9.66
2022-12-25T23:11:03.469Z,10.55
2022-12-25T23:16:06.345Z,10.37
2022-12-25T23:22:17.504Z,8.11
2022-12-25T23:27:20.366Z,8.01
2022-12-25T23:32:25.558Z,9.68
2022-12-25T23:37:28.476Z,10.39
2022-12-25T23:42:33.797Z,10.85
2022-12-25T23:47:36.497Z,9.80
2022-12-25T23:52:39.775Z,7.54
2022-12-25T23:57:42.547Z,7.91
